ACN5653 SBRF-SNAB
Flight info
| Callsign | ACN5653 |
|---|---|
| Flight time | 1h 49m |
| Altitude | 6000 |
| Route | EVNEV DCT EDRIM/N0178F065 VFR DCT 0753S03707W 0751S03758W 0752S03845W 0739S04009W DCT |
| Aircraft | C208/L-SDFGR/C |
Departure
| Time | 2026-05-04 11:13 |
|---|---|
| Airport | Recife/Guararapes - Gilberto Freyre International Airport (SBRF) |
Arrival
| Time | 2026-05-04 13:03 |
|---|---|
| Airport | Araripina Airport (SNAB) |
| Time | Latitude | Longitude | Altitude | Speed | Heading |
|---|---|---|---|---|---|
| 2026-05-04 11:05 | -8.12958 | -34.91984 | 45 ft | 0 kts | 72° |
| 2026-05-04 11:10 | -8.12964 | -34.92014 | 45 ft | 11 kts | 250° |
| 2026-05-04 11:12 | -8.12526 | -34.92354 | 47 ft | 0 kts | 162° |
| 2026-05-04 11:12 | -8.12549 | -34.92346 | 48 ft | 19 kts | 162° |
| 2026-05-04 11:12 | -8.12823 | -34.92255 | 50 ft | 62 kts | 162° |
| 2026-05-04 11:12 | -8.13317 | -34.92097 | 120 ft | 81 kts | 165° |
| 2026-05-04 11:13 | -8.13879 | -34.92109 | 219 ft | 90 kts | 220° |
| 2026-05-04 11:13 | -8.13966 | -34.92728 | 367 ft | 96 kts | 278° |
| 2026-05-04 11:13 | -8.14204 | -34.93375 | 466 ft | 109 kts | 221° |
| 2026-05-04 11:13 | -8.14574 | -34.94066 | 662 ft | 118 kts | 251° |
| 2026-05-04 11:14 | -8.14847 | -34.94868 | 858 ft | 122 kts | 245° |
| 2026-05-04 11:14 | -8.15149 | -34.95688 | 1068 ft | 129 kts | 244° |
| 2026-05-04 11:14 | -8.15460 | -34.96555 | 1272 ft | 133 kts | 245° |
| 2026-05-04 11:16 | -8.17589 | -35.02530 | 2620 ft | 127 kts | 242° |
| 2026-05-04 11:16 | -8.17893 | -35.03375 | 2825 ft | 130 kts | 242° |
| 2026-05-04 11:16 | -8.18206 | -35.04255 | 3021 ft | 134 kts | 243° |
| 2026-05-04 11:17 | -8.18518 | -35.05139 | 3223 ft | 135 kts | 243° |
| 2026-05-04 11:17 | -8.18837 | -35.06026 | 3421 ft | 137 kts | 243° |
| 2026-05-04 11:19 | -8.18891 | -35.13018 | 4795 ft | 150 kts | 275° |
| 2026-05-04 11:19 | -8.18712 | -35.14055 | 4981 ft | 149 kts | 275° |
| 2026-05-04 11:19 | -8.18535 | -35.15081 | 5170 ft | 148 kts | 276° |
| 2026-05-04 11:19 | -8.18356 | -35.16114 | 5361 ft | 150 kts | 276° |
| 2026-05-04 11:20 | -8.18178 | -35.17152 | 5551 ft | 150 kts | 276° |
| 2026-05-04 11:20 | -8.17997 | -35.18192 | 5746 ft | 151 kts | 277° |
| 2026-05-04 11:20 | -8.17814 | -35.19236 | 5945 ft | 151 kts | 276° |
| 2026-05-04 11:20 | -8.17640 | -35.20295 | 6038 ft | 156 kts | 276° |
| 2026-05-04 11:22 | -8.16165 | -35.28829 | 6051 ft | 183 kts | 277° |
| 2026-05-04 11:22 | -8.15946 | -35.30096 | 6058 ft | 184 kts | 277° |
| 2026-05-04 11:23 | -8.15730 | -35.31361 | 6047 ft | 182 kts | 278° |
| 2026-05-04 11:23 | -8.15508 | -35.32620 | 6051 ft | 183 kts | 277° |
| 2026-05-04 11:24 | -8.14191 | -35.40281 | 6058 ft | 186 kts | 277° |
| 2026-05-04 11:25 | -8.13964 | -35.41569 | 6058 ft | 187 kts | 278° |
| 2026-05-04 11:25 | -8.13744 | -35.42865 | 6059 ft | 188 kts | 277° |
| 2026-05-04 11:25 | -8.13521 | -35.44159 | 6058 ft | 187 kts | 277° |
| 2026-05-04 11:26 | -8.13075 | -35.46747 | 6059 ft | 188 kts | 277° |
| 2026-05-04 11:27 | -8.11501 | -35.55836 | 6065 ft | 188 kts | 278° |
| 2026-05-04 11:28 | -8.11278 | -35.57127 | 6061 ft | 186 kts | 277° |
| 2026-05-04 11:28 | -8.11056 | -35.58404 | 6059 ft | 184 kts | 277° |
| 2026-05-04 11:28 | -8.10837 | -35.59678 | 6055 ft | 184 kts | 276° |
| 2026-05-04 11:28 | -8.10625 | -35.60950 | 6058 ft | 183 kts | 275° |
| 2026-05-04 11:29 | -8.10456 | -35.62209 | 6055 ft | 185 kts | 275° |
| 2026-05-04 11:29 | -8.10239 | -35.63481 | 6055 ft | 183 kts | 277° |
| 2026-05-04 11:29 | -8.10012 | -35.64739 | 6056 ft | 182 kts | 276° |
| 2026-05-04 11:29 | -8.09792 | -35.66001 | 6054 ft | 183 kts | 277° |
| 2026-05-04 11:31 | -8.08243 | -35.74907 | 6056 ft | 186 kts | 277° |
| 2026-05-04 11:33 | -8.06669 | -35.83944 | 6061 ft | 187 kts | 276° |
| 2026-05-04 11:33 | -8.06446 | -35.85238 | 6059 ft | 188 kts | 276° |
| 2026-05-04 11:33 | -8.06221 | -35.86536 | 6061 ft | 188 kts | 277° |
| 2026-05-04 11:34 | -8.05993 | -35.87828 | 6060 ft | 186 kts | 276° |
| 2026-05-04 11:34 | -8.05771 | -35.89114 | 6061 ft | 186 kts | 276° |
| 2026-05-04 11:34 | -8.05551 | -35.90398 | 6062 ft | 185 kts | 276° |
| 2026-05-04 11:34 | -8.05329 | -35.91677 | 6065 ft | 185 kts | 276° |
| 2026-05-04 11:35 | -8.05102 | -35.92962 | 6066 ft | 186 kts | 277° |
| 2026-05-04 11:35 | -8.04878 | -35.94247 | 6063 ft | 186 kts | 276° |
| 2026-05-04 11:35 | -8.04656 | -35.95531 | 6065 ft | 186 kts | 276° |
| 2026-05-04 11:35 | -8.04432 | -35.96813 | 6065 ft | 185 kts | 277° |
| 2026-05-04 11:36 | -8.04212 | -35.98092 | 6066 ft | 185 kts | 276° |
| 2026-05-04 11:36 | -8.03992 | -35.99371 | 6063 ft | 185 kts | 276° |
| 2026-05-04 11:36 | -8.03771 | -36.00629 | 6065 ft | 184 kts | 277° |
| 2026-05-04 11:36 | -8.03545 | -36.01916 | 6066 ft | 184 kts | 276° |
| 2026-05-04 11:37 | -8.03323 | -36.03193 | 6065 ft | 185 kts | 277° |
| 2026-05-04 11:37 | -8.03103 | -36.04455 | 6068 ft | 186 kts | 277° |
| 2026-05-04 11:37 | -8.02878 | -36.05733 | 6070 ft | 185 kts | 277° |
| 2026-05-04 11:37 | -8.02654 | -36.07015 | 6065 ft | 185 kts | 276° |
| 2026-05-04 11:38 | -8.02436 | -36.08297 | 6066 ft | 186 kts | 277° |
| 2026-05-04 11:38 | -8.02211 | -36.09583 | 6069 ft | 187 kts | 277° |
| 2026-05-04 11:38 | -8.01980 | -36.10883 | 6068 ft | 189 kts | 277° |
| 2026-05-04 11:38 | -8.01749 | -36.12189 | 6067 ft | 189 kts | 276° |
| 2026-05-04 11:39 | -8.01517 | -36.13489 | 6074 ft | 188 kts | 276° |
| 2026-05-04 11:39 | -8.01295 | -36.14799 | 6074 ft | 190 kts | 276° |
| 2026-05-04 11:40 | -7.99930 | -36.22619 | 6069 ft | 188 kts | 277° |
| 2026-05-04 11:41 | -7.99704 | -36.23911 | 6077 ft | 186 kts | 276° |
| 2026-05-04 11:41 | -7.99479 | -36.25208 | 6074 ft | 188 kts | 276° |
| 2026-05-04 11:41 | -7.99249 | -36.26508 | 6075 ft | 188 kts | 277° |
| 2026-05-04 11:41 | -7.99021 | -36.27810 | 6071 ft | 188 kts | 277° |
| 2026-05-04 11:42 | -7.98800 | -36.29094 | 6068 ft | 188 kts | 276° |
| 2026-05-04 11:42 | -7.98571 | -36.30401 | 6081 ft | 187 kts | 276° |
| 2026-05-04 11:42 | -7.98346 | -36.31674 | 6076 ft | 186 kts | 277° |
| 2026-05-04 11:42 | -7.98123 | -36.32966 | 6074 ft | 188 kts | 276° |
| 2026-05-04 11:43 | -7.97894 | -36.34262 | 6075 ft | 187 kts | 276° |
| 2026-05-04 11:43 | -7.97667 | -36.35552 | 6080 ft | 187 kts | 277° |
| 2026-05-04 11:43 | -7.97440 | -36.36840 | 6076 ft | 186 kts | 276° |
| 2026-05-04 11:43 | -7.97219 | -36.38120 | 6071 ft | 185 kts | 276° |
| 2026-05-04 11:44 | -7.97002 | -36.39397 | 6072 ft | 185 kts | 276° |
| 2026-05-04 11:44 | -7.96774 | -36.40679 | 6070 ft | 186 kts | 277° |
| 2026-05-04 11:44 | -7.96545 | -36.41955 | 6075 ft | 185 kts | 277° |
| 2026-05-04 11:44 | -7.96323 | -36.43232 | 6079 ft | 185 kts | 276° |
| 2026-05-04 11:45 | -7.96099 | -36.44512 | 6072 ft | 185 kts | 277° |
| 2026-05-04 11:45 | -7.95878 | -36.45796 | 6073 ft | 186 kts | 277° |
| 2026-05-04 11:45 | -7.95648 | -36.47086 | 6074 ft | 187 kts | 276° |
| 2026-05-04 11:45 | -7.95419 | -36.48374 | 6075 ft | 186 kts | 276° |
| 2026-05-04 11:46 | -7.95197 | -36.49661 | 6074 ft | 187 kts | 276° |
| 2026-05-04 11:46 | -7.94968 | -36.50953 | 6071 ft | 187 kts | 277° |
| 2026-05-04 11:46 | -7.94739 | -36.52244 | 6070 ft | 186 kts | 276° |
| 2026-05-04 11:46 | -7.94516 | -36.53534 | 6071 ft | 188 kts | 276° |
| 2026-05-04 11:47 | -7.94289 | -36.54836 | 6074 ft | 189 kts | 277° |
| 2026-05-04 11:47 | -7.94056 | -36.56140 | 6077 ft | 189 kts | 277° |
| 2026-05-04 11:47 | -7.93822 | -36.57445 | 6079 ft | 188 kts | 276° |
| 2026-05-04 11:47 | -7.93600 | -36.58744 | 6072 ft | 188 kts | 277° |
| 2026-05-04 11:48 | -7.93375 | -36.60048 | 6078 ft | 189 kts | 277° |
| 2026-05-04 11:48 | -7.93146 | -36.61326 | 6072 ft | 188 kts | 277° |
| 2026-05-04 11:48 | -7.92912 | -36.62648 | 6078 ft | 187 kts | 276° |
| 2026-05-04 11:48 | -7.92687 | -36.63944 | 6073 ft | 188 kts | 277° |
| 2026-05-04 11:49 | -7.92459 | -36.65231 | 6072 ft | 186 kts | 276° |
| 2026-05-04 11:49 | -7.92237 | -36.66520 | 6075 ft | 187 kts | 276° |
| 2026-05-04 11:49 | -7.92008 | -36.67816 | 6072 ft | 188 kts | 277° |
| 2026-05-04 11:49 | -7.91775 | -36.69111 | 6081 ft | 187 kts | 277° |
| 2026-05-04 11:50 | -7.91550 | -36.70403 | 6079 ft | 188 kts | 277° |
| 2026-05-04 11:50 | -7.91327 | -36.71691 | 6076 ft | 189 kts | 277° |
| 2026-05-04 11:50 | -7.91093 | -36.72995 | 6080 ft | 189 kts | 277° |
| 2026-05-04 11:50 | -7.90861 | -36.74306 | 6081 ft | 190 kts | 277° |
| 2026-05-04 11:51 | -7.90628 | -36.75626 | 6086 ft | 192 kts | 277° |
| 2026-05-04 11:51 | -7.90396 | -36.76953 | 6088 ft | 193 kts | 277° |
| 2026-05-04 11:51 | -7.90156 | -36.78286 | 6088 ft | 194 kts | 277° |
| 2026-05-04 11:51 | -7.89917 | -36.79622 | 6078 ft | 193 kts | 277° |
| 2026-05-04 11:52 | -7.89684 | -36.80956 | 6089 ft | 194 kts | 277° |
| 2026-05-04 11:52 | -7.89450 | -36.82287 | 6085 ft | 192 kts | 277° |
| 2026-05-04 11:52 | -7.89219 | -36.83620 | 6090 ft | 194 kts | 277° |
| 2026-05-04 11:52 | -7.88974 | -36.84963 | 6086 ft | 196 kts | 279° |
| 2026-05-04 11:53 | -7.88726 | -36.86308 | 6085 ft | 196 kts | 276° |
| 2026-05-04 11:53 | -7.88579 | -36.87207 | 6083 ft | 195 kts | 276° |
| 2026-05-04 11:53 | -7.88271 | -36.89004 | 6078 ft | 194 kts | 277° |
| 2026-05-04 11:53 | -7.88036 | -36.90333 | 6084 ft | 192 kts | 277° |
| 2026-05-04 11:55 | -7.87911 | -36.99478 | 6078 ft | 188 kts | 264° |
| 2026-05-04 11:55 | -7.87950 | -37.00798 | 6079 ft | 188 kts | 264° |
| 2026-05-04 11:56 | -7.87979 | -37.01672 | 6087 ft | 189 kts | 264° |
| 2026-05-04 11:56 | -7.88036 | -37.02995 | 6082 ft | 190 kts | 263° |
| 2026-05-04 11:56 | -7.88083 | -37.04321 | 6084 ft | 189 kts | 264° |
| 2026-05-04 11:56 | -7.88128 | -37.05649 | 6084 ft | 190 kts | 264° |
| 2026-05-04 11:57 | -7.88177 | -37.06986 | 6078 ft | 190 kts | 264° |
| 2026-05-04 11:57 | -7.88226 | -37.08311 | 6084 ft | 189 kts | 264° |
| 2026-05-04 11:57 | -7.88273 | -37.09635 | 6078 ft | 188 kts | 264° |
| 2026-05-04 11:57 | -7.88321 | -37.10950 | 6081 ft | 188 kts | 264° |
| 2026-05-04 11:58 | -7.88330 | -37.12265 | 6083 ft | 188 kts | 269° |
| 2026-05-04 11:58 | -7.88268 | -37.13583 | 6080 ft | 188 kts | 269° |
| 2026-05-04 11:58 | -7.88222 | -37.14900 | 6077 ft | 188 kts | 268° |
| 2026-05-04 11:58 | -7.88174 | -37.16217 | 6083 ft | 188 kts | 268° |
| 2026-05-04 11:59 | -7.88124 | -37.17531 | 6077 ft | 187 kts | 268° |
| 2026-05-04 11:59 | -7.88073 | -37.18846 | 6079 ft | 188 kts | 268° |
| 2026-05-04 11:59 | -7.88024 | -37.20162 | 6080 ft | 188 kts | 268° |
| 2026-05-04 11:59 | -7.87973 | -37.21476 | 6080 ft | 187 kts | 268° |
| 2026-05-04 12:00 | -7.87923 | -37.22784 | 6078 ft | 187 kts | 268° |
| 2026-05-04 12:00 | -7.87870 | -37.24096 | 6078 ft | 187 kts | 268° |
| 2026-05-04 12:00 | -7.87820 | -37.25407 | 6082 ft | 187 kts | 268° |
| 2026-05-04 12:00 | -7.87771 | -37.26713 | 6085 ft | 186 kts | 268° |
| 2026-05-04 12:01 | -7.87723 | -37.28012 | 6080 ft | 185 kts | 268° |
| 2026-05-04 12:01 | -7.87675 | -37.29292 | 6085 ft | 186 kts | 268° |
| 2026-05-04 12:02 | -7.87370 | -37.37123 | 6090 ft | 186 kts | 268° |
| 2026-05-04 12:03 | -7.87320 | -37.38427 | 6086 ft | 187 kts | 268° |
| 2026-05-04 12:03 | -7.87269 | -37.39735 | 6086 ft | 187 kts | 268° |
| 2026-05-04 12:03 | -7.87217 | -37.41041 | 6085 ft | 186 kts | 268° |
| 2026-05-04 12:03 | -7.87168 | -37.42344 | 6083 ft | 186 kts | 268° |
| 2026-05-04 12:04 | -7.87118 | -37.43641 | 6084 ft | 185 kts | 268° |
| 2026-05-04 12:04 | -7.87067 | -37.44943 | 6084 ft | 186 kts | 268° |
| 2026-05-04 12:04 | -7.87015 | -37.46233 | 6083 ft | 187 kts | 268° |
| 2026-05-04 12:04 | -7.86962 | -37.47543 | 6083 ft | 187 kts | 268° |
| 2026-05-04 12:05 | -7.86910 | -37.48857 | 6083 ft | 187 kts | 268° |
| 2026-05-04 12:05 | -7.86862 | -37.50168 | 6078 ft | 187 kts | 268° |
| 2026-05-04 12:05 | -7.86810 | -37.51483 | 6083 ft | 188 kts | 268° |
| 2026-05-04 12:05 | -7.86756 | -37.52784 | 6184 ft | 183 kts | 268° |
| 2026-05-04 12:06 | -7.86714 | -37.54052 | 6300 ft | 179 kts | 267° |
| 2026-05-04 12:06 | -7.86673 | -37.55298 | 6419 ft | 177 kts | 267° |
| 2026-05-04 12:06 | -7.86625 | -37.56526 | 6529 ft | 174 kts | 266° |
| 2026-05-04 12:06 | -7.86579 | -37.57745 | 6582 ft | 176 kts | 267° |
| 2026-05-04 12:07 | -7.86525 | -37.59002 | 6583 ft | 182 kts | 268° |
| 2026-05-04 12:07 | -7.86466 | -37.60289 | 6590 ft | 185 kts | 268° |
| 2026-05-04 12:07 | -7.86412 | -37.61589 | 6586 ft | 186 kts | 268° |
| 2026-05-04 12:07 | -7.86362 | -37.62893 | 6591 ft | 187 kts | 268° |
| 2026-05-04 12:08 | -7.86310 | -37.64202 | 6588 ft | 187 kts | 269° |
| 2026-05-04 12:08 | -7.86255 | -37.65513 | 6593 ft | 188 kts | 268° |
| 2026-05-04 12:08 | -7.86209 | -37.66829 | 6593 ft | 188 kts | 268° |
| 2026-05-04 12:08 | -7.86156 | -37.68143 | 6590 ft | 187 kts | 269° |
| 2026-05-04 12:09 | -7.86103 | -37.69456 | 6590 ft | 187 kts | 268° |
| 2026-05-04 12:09 | -7.86051 | -37.70770 | 6586 ft | 187 kts | 268° |
| 2026-05-04 12:09 | -7.85998 | -37.72077 | 6583 ft | 186 kts | 268° |
| 2026-05-04 12:09 | -7.85949 | -37.73378 | 6591 ft | 186 kts | 269° |
| 2026-05-04 12:10 | -7.85896 | -37.74684 | 6584 ft | 186 kts | 269° |
| 2026-05-04 12:10 | -7.85845 | -37.75968 | 6583 ft | 186 kts | 268° |
| 2026-05-04 12:10 | -7.85795 | -37.77271 | 6587 ft | 186 kts | 268° |
| 2026-05-04 12:10 | -7.85741 | -37.78575 | 6583 ft | 187 kts | 269° |
| 2026-05-04 12:11 | -7.85688 | -37.79883 | 6581 ft | 187 kts | 268° |
| 2026-05-04 12:11 | -7.85637 | -37.81197 | 6579 ft | 188 kts | 268° |
| 2026-05-04 12:11 | -7.85584 | -37.82513 | 6579 ft | 188 kts | 269° |
| 2026-05-04 12:11 | -7.85533 | -37.83830 | 6584 ft | 188 kts | 268° |
| 2026-05-04 12:12 | -7.85477 | -37.85148 | 6581 ft | 189 kts | 268° |
| 2026-05-04 12:12 | -7.85423 | -37.86466 | 6587 ft | 188 kts | 268° |
| 2026-05-04 12:12 | -7.85370 | -37.87785 | 6578 ft | 188 kts | 268° |
| 2026-05-04 12:12 | -7.85320 | -37.89103 | 6578 ft | 187 kts | 268° |
| 2026-05-04 12:13 | -7.85268 | -37.90416 | 6583 ft | 189 kts | 269° |
| 2026-05-04 12:14 | -7.85086 | -37.99714 | 6582 ft | 190 kts | 264° |
| 2026-05-04 12:15 | -7.85116 | -38.01040 | 6587 ft | 190 kts | 264° |
| 2026-05-04 12:15 | -7.85140 | -38.02372 | 6586 ft | 192 kts | 266° |
| 2026-05-04 12:15 | -7.85163 | -38.03717 | 6584 ft | 191 kts | 264° |
| 2026-05-04 12:15 | -7.85202 | -38.05061 | 6584 ft | 194 kts | 264° |
| 2026-05-04 12:16 | -7.85235 | -38.06417 | 6580 ft | 191 kts | 265° |
| 2026-05-04 12:16 | -7.85263 | -38.07752 | 6587 ft | 190 kts | 265° |
| 2026-05-04 12:16 | -7.85285 | -38.09073 | 6595 ft | 192 kts | 266° |
| 2026-05-04 12:16 | -7.85308 | -38.10446 | 6581 ft | 192 kts | 264° |
| 2026-05-04 12:17 | -7.85340 | -38.11782 | 6592 ft | 195 kts | 264° |
| 2026-05-04 12:17 | -7.85374 | -38.13167 | 6584 ft | 198 kts | 264° |
| 2026-05-04 12:17 | -7.85393 | -38.14546 | 6600 ft | 196 kts | 265° |
| 2026-05-04 12:17 | -7.85434 | -38.15939 | 6576 ft | 200 kts | 263° |
| 2026-05-04 12:18 | -7.85457 | -38.17343 | 6580 ft | 198 kts | 266° |
| 2026-05-04 12:18 | -7.85482 | -38.18732 | 6576 ft | 196 kts | 265° |
| 2026-05-04 12:18 | -7.85514 | -38.20089 | 6577 ft | 190 kts | 264° |
| 2026-05-04 12:18 | -7.85565 | -38.21427 | 6582 ft | 195 kts | 264° |
| 2026-05-04 12:19 | -7.85585 | -38.22784 | 6581 ft | 191 kts | 266° |
| 2026-05-04 12:19 | -7.85614 | -38.24119 | 6590 ft | 193 kts | 264° |
| 2026-05-04 12:19 | -7.85648 | -38.25469 | 6586 ft | 190 kts | 265° |
| 2026-05-04 12:19 | -7.85670 | -38.26796 | 6584 ft | 189 kts | 264° |
| 2026-05-04 12:20 | -7.85699 | -38.28122 | 6579 ft | 188 kts | 264° |
| 2026-05-04 12:20 | -7.85733 | -38.29448 | 6578 ft | 190 kts | 264° |
| 2026-05-04 12:20 | -7.85759 | -38.30780 | 6579 ft | 190 kts | 264° |
| 2026-05-04 12:20 | -7.85786 | -38.32115 | 6579 ft | 190 kts | 265° |
| 2026-05-04 12:21 | -7.85810 | -38.33440 | 6582 ft | 189 kts | 264° |
| 2026-05-04 12:21 | -7.85850 | -38.34761 | 6578 ft | 188 kts | 264° |
| 2026-05-04 12:21 | -7.85882 | -38.36087 | 6579 ft | 190 kts | 264° |
| 2026-05-04 12:21 | -7.85903 | -38.37427 | 6586 ft | 192 kts | 265° |
| 2026-05-04 12:22 | -7.85923 | -38.38759 | 6578 ft | 189 kts | 264° |
| 2026-05-04 12:22 | -7.85956 | -38.40084 | 6590 ft | 192 kts | 264° |
| 2026-05-04 12:22 | -7.85983 | -38.41445 | 6577 ft | 195 kts | 266° |
| 2026-05-04 12:22 | -7.86000 | -38.42803 | 6590 ft | 194 kts | 266° |
| 2026-05-04 12:23 | -7.86039 | -38.44155 | 6582 ft | 192 kts | 264° |
| 2026-05-04 12:23 | -7.86072 | -38.45509 | 6593 ft | 195 kts | 265° |
| 2026-05-04 12:23 | -7.86096 | -38.46886 | 6587 ft | 198 kts | 265° |
| 2026-05-04 12:23 | -7.86123 | -38.48270 | 6573 ft | 195 kts | 265° |
| 2026-05-04 12:24 | -7.86151 | -38.49623 | 6585 ft | 192 kts | 265° |
| 2026-05-04 12:24 | -7.86181 | -38.50989 | 6587 ft | 196 kts | 265° |
| 2026-05-04 12:24 | -7.86210 | -38.52365 | 6591 ft | 196 kts | 265° |
| 2026-05-04 12:24 | -7.86234 | -38.53744 | 6582 ft | 195 kts | 264° |
| 2026-05-04 12:25 | -7.86268 | -38.55105 | 6588 ft | 193 kts | 265° |
| 2026-05-04 12:25 | -7.86298 | -38.56466 | 6588 ft | 195 kts | 264° |
| 2026-05-04 12:25 | -7.86329 | -38.57842 | 6581 ft | 198 kts | 265° |
| 2026-05-04 12:25 | -7.86345 | -38.59213 | 6577 ft | 194 kts | 265° |
| 2026-05-04 12:26 | -7.86378 | -38.60559 | 6590 ft | 193 kts | 265° |
| 2026-05-04 12:26 | -7.86407 | -38.61936 | 6587 ft | 200 kts | 265° |
| 2026-05-04 12:26 | -7.86431 | -38.63333 | 6574 ft | 196 kts | 265° |
| 2026-05-04 12:26 | -7.86465 | -38.64695 | 6579 ft | 192 kts | 264° |
| 2026-05-04 12:27 | -7.86503 | -38.66027 | 6586 ft | 194 kts | 263° |
| 2026-05-04 12:27 | -7.86524 | -38.67391 | 6582 ft | 195 kts | 267° |
| 2026-05-04 12:27 | -7.86541 | -38.68759 | 6579 ft | 193 kts | 265° |
| 2026-05-04 12:27 | -7.86583 | -38.70116 | 6585 ft | 195 kts | 265° |
| 2026-05-04 12:28 | -7.86605 | -38.71499 | 6583 ft | 195 kts | 266° |
| 2026-05-04 12:28 | -7.86626 | -38.72849 | 6577 ft | 194 kts | 265° |
| 2026-05-04 12:28 | -7.86661 | -38.74205 | 6586 ft | 194 kts | 264° |
| 2026-05-04 12:28 | -7.86614 | -38.75573 | 6586 ft | 196 kts | 275° |
| 2026-05-04 12:29 | -7.86389 | -38.76932 | 6582 ft | 196 kts | 276° |
| 2026-05-04 12:29 | -7.86169 | -38.78289 | 6587 ft | 196 kts | 275° |
| 2026-05-04 12:29 | -7.85966 | -38.79648 | 6586 ft | 197 kts | 275° |
| 2026-05-04 12:29 | -7.85751 | -38.81017 | 6585 ft | 197 kts | 275° |
| 2026-05-04 12:30 | -7.85538 | -38.82377 | 6586 ft | 196 kts | 275° |
| 2026-05-04 12:30 | -7.85337 | -38.83740 | 6586 ft | 196 kts | 275° |
| 2026-05-04 12:30 | -7.85137 | -38.85104 | 6591 ft | 198 kts | 275° |
| 2026-05-04 12:30 | -7.84917 | -38.86469 | 6571 ft | 196 kts | 276° |
| 2026-05-04 12:31 | -7.84711 | -38.87811 | 6576 ft | 192 kts | 274° |
| 2026-05-04 12:31 | -7.84519 | -38.89146 | 6573 ft | 192 kts | 275° |
| 2026-05-04 12:31 | -7.84311 | -38.90493 | 6586 ft | 196 kts | 276° |
| 2026-05-04 12:31 | -7.84091 | -38.91861 | 6577 ft | 198 kts | 275° |
| 2026-05-04 12:32 | -7.83874 | -38.93225 | 6586 ft | 197 kts | 276° |
| 2026-05-04 12:32 | -7.83471 | -38.95949 | 6577 ft | 196 kts | 275° |
| 2026-05-04 12:32 | -7.83263 | -38.97292 | 6595 ft | 192 kts | 275° |
| 2026-05-04 12:33 | -7.83056 | -38.98627 | 6587 ft | 190 kts | 275° |
| 2026-05-04 12:33 | -7.82854 | -38.99950 | 6586 ft | 192 kts | 275° |
| 2026-05-04 12:33 | -7.82652 | -39.01283 | 6578 ft | 192 kts | 276° |
| 2026-05-04 12:33 | -7.82448 | -39.02614 | 6584 ft | 192 kts | 276° |
| 2026-05-04 12:34 | -7.82244 | -39.03942 | 6579 ft | 191 kts | 275° |
| 2026-05-04 12:34 | -7.82039 | -39.05267 | 6577 ft | 190 kts | 276° |
| 2026-05-04 12:34 | -7.81835 | -39.06582 | 6582 ft | 190 kts | 276° |
| 2026-05-04 12:34 | -7.81634 | -39.07898 | 6576 ft | 190 kts | 275° |
| 2026-05-04 12:35 | -7.81428 | -39.09212 | 6584 ft | 191 kts | 277° |
| 2026-05-04 12:35 | -7.81224 | -39.10540 | 6580 ft | 191 kts | 276° |
| 2026-05-04 12:35 | -7.81023 | -39.11848 | 6585 ft | 188 kts | 275° |
| 2026-05-04 12:35 | -7.80825 | -39.13164 | 6579 ft | 190 kts | 276° |
| 2026-05-04 12:36 | -7.80621 | -39.14486 | 6583 ft | 192 kts | 276° |
| 2026-05-04 12:36 | -7.80408 | -39.15814 | 6587 ft | 191 kts | 276° |
| 2026-05-04 12:36 | -7.80208 | -39.17134 | 6581 ft | 190 kts | 275° |
| 2026-05-04 12:36 | -7.80010 | -39.18449 | 6577 ft | 189 kts | 275° |
| 2026-05-04 12:37 | -7.79808 | -39.19756 | 6576 ft | 189 kts | 275° |
| 2026-05-04 12:37 | -7.79609 | -39.21061 | 6586 ft | 188 kts | 276° |
| 2026-05-04 12:37 | -7.79408 | -39.22362 | 6582 ft | 187 kts | 275° |
| 2026-05-04 12:37 | -7.79210 | -39.23645 | 6582 ft | 188 kts | 275° |
| 2026-05-04 12:38 | -7.79008 | -39.24950 | 6578 ft | 189 kts | 275° |
| 2026-05-04 12:38 | -7.78805 | -39.26261 | 6581 ft | 189 kts | 276° |
| 2026-05-04 12:38 | -7.78604 | -39.27569 | 6586 ft | 189 kts | 275° |
| 2026-05-04 12:38 | -7.78401 | -39.28881 | 6582 ft | 189 kts | 275° |
| 2026-05-04 12:39 | -7.78197 | -39.30189 | 6586 ft | 189 kts | 276° |
| 2026-05-04 12:39 | -7.77995 | -39.31506 | 6585 ft | 190 kts | 275° |
| 2026-05-04 12:39 | -7.77791 | -39.32822 | 6583 ft | 190 kts | 275° |
| 2026-05-04 12:39 | -7.77590 | -39.34129 | 6584 ft | 189 kts | 275° |
| 2026-05-04 12:40 | -7.77386 | -39.35445 | 6581 ft | 189 kts | 275° |
| 2026-05-04 12:40 | -7.77185 | -39.36749 | 6582 ft | 188 kts | 275° |
| 2026-05-04 12:40 | -7.76986 | -39.38052 | 6583 ft | 188 kts | 275° |
| 2026-05-04 12:40 | -7.76784 | -39.39352 | 6580 ft | 188 kts | 275° |
| 2026-05-04 12:41 | -7.76582 | -39.40655 | 6581 ft | 188 kts | 275° |
| 2026-05-04 12:41 | -7.76382 | -39.41958 | 6581 ft | 188 kts | 275° |
| 2026-05-04 12:41 | -7.76180 | -39.43266 | 6580 ft | 188 kts | 275° |
| 2026-05-04 12:41 | -7.75978 | -39.44566 | 6584 ft | 188 kts | 275° |
| 2026-05-04 12:42 | -7.75777 | -39.45873 | 6585 ft | 188 kts | 275° |
| 2026-05-04 12:42 | -7.75573 | -39.47176 | 6584 ft | 188 kts | 275° |
| 2026-05-04 12:42 | -7.75371 | -39.48480 | 6584 ft | 189 kts | 275° |
| 2026-05-04 12:42 | -7.75170 | -39.49790 | 6583 ft | 189 kts | 275° |
| 2026-05-04 12:43 | -7.75036 | -39.50656 | 6580 ft | 189 kts | 275° |
| 2026-05-04 12:43 | -7.74833 | -39.51964 | 6583 ft | 189 kts | 276° |
| 2026-05-04 12:43 | -7.74563 | -39.53691 | 6581 ft | 188 kts | 275° |
| 2026-05-04 12:43 | -7.74427 | -39.54572 | 6581 ft | 188 kts | 275° |
| 2026-05-04 12:44 | -7.74161 | -39.56295 | 6584 ft | 188 kts | 276° |
| 2026-05-04 12:44 | -7.73959 | -39.57595 | 6585 ft | 188 kts | 276° |
| 2026-05-04 12:44 | -7.73824 | -39.58476 | 6585 ft | 188 kts | 275° |
| 2026-05-04 12:44 | -7.73555 | -39.60200 | 6581 ft | 188 kts | 275° |
| 2026-05-04 12:45 | -7.73418 | -39.61077 | 6586 ft | 188 kts | 275° |
| 2026-05-04 12:45 | -7.73216 | -39.62384 | 6586 ft | 189 kts | 275° |
| 2026-05-04 12:45 | -7.73011 | -39.63695 | 6585 ft | 189 kts | 275° |
| 2026-05-04 12:45 | -7.72809 | -39.65005 | 6580 ft | 189 kts | 275° |
| 2026-05-04 12:46 | -7.72606 | -39.66315 | 6584 ft | 189 kts | 275° |
| 2026-05-04 12:46 | -7.72402 | -39.67624 | 6582 ft | 189 kts | 275° |
| 2026-05-04 12:46 | -7.72197 | -39.68939 | 6582 ft | 190 kts | 275° |
| 2026-05-04 12:46 | -7.71993 | -39.70248 | 6585 ft | 189 kts | 276° |
| 2026-05-04 12:47 | -7.71789 | -39.71561 | 6577 ft | 189 kts | 275° |
| 2026-05-04 12:47 | -7.71587 | -39.72869 | 6580 ft | 189 kts | 275° |
| 2026-05-04 12:47 | -7.71384 | -39.74177 | 6580 ft | 189 kts | 275° |
| 2026-05-04 12:47 | -7.71182 | -39.75482 | 6581 ft | 189 kts | 275° |
| 2026-05-04 12:48 | -7.70979 | -39.76792 | 6580 ft | 189 kts | 275° |
| 2026-05-04 12:48 | -7.70775 | -39.78100 | 6583 ft | 189 kts | 276° |
| 2026-05-04 12:48 | -7.70572 | -39.79406 | 6580 ft | 189 kts | 275° |
| 2026-05-04 12:48 | -7.70367 | -39.80718 | 6582 ft | 189 kts | 275° |
| 2026-05-04 12:49 | -7.70165 | -39.82015 | 6585 ft | 190 kts | 276° |
| 2026-05-04 12:49 | -7.69958 | -39.83338 | 6584 ft | 193 kts | 276° |
| 2026-05-04 12:49 | -7.69748 | -39.84673 | 6584 ft | 193 kts | 275° |
| 2026-05-04 12:49 | -7.69540 | -39.86016 | 6586 ft | 194 kts | 276° |
| 2026-05-04 12:50 | -7.69327 | -39.87373 | 6584 ft | 193 kts | 276° |
| 2026-05-04 12:50 | -7.69119 | -39.88705 | 6579 ft | 192 kts | 276° |
| 2026-05-04 12:50 | -7.68915 | -39.90034 | 6580 ft | 192 kts | 276° |
| 2026-05-04 12:50 | -7.68711 | -39.91348 | 6588 ft | 188 kts | 275° |
| 2026-05-04 12:51 | -7.68512 | -39.92655 | 6583 ft | 189 kts | 276° |
| 2026-05-04 12:51 | -7.68304 | -39.93970 | 6587 ft | 190 kts | 276° |
| 2026-05-04 12:51 | -7.68096 | -39.95287 | 6578 ft | 190 kts | 275° |
| 2026-05-04 12:51 | -7.67894 | -39.96588 | 6582 ft | 191 kts | 275° |
| 2026-05-04 12:52 | -7.67688 | -39.97908 | 6587 ft | 191 kts | 276° |
| 2026-05-04 12:52 | -7.67481 | -39.99226 | 6581 ft | 190 kts | 276° |
| 2026-05-04 12:52 | -7.67277 | -40.00542 | 6583 ft | 190 kts | 276° |
| 2026-05-04 12:52 | -7.67071 | -40.01859 | 6582 ft | 190 kts | 276° |
| 2026-05-04 12:53 | -7.66866 | -40.03178 | 6583 ft | 190 kts | 276° |
| 2026-05-04 12:53 | -7.66660 | -40.04498 | 6583 ft | 191 kts | 276° |
| 2026-05-04 12:53 | -7.66455 | -40.05818 | 6581 ft | 191 kts | 276° |
| 2026-05-04 12:53 | -7.66248 | -40.07137 | 6586 ft | 191 kts | 276° |
| 2026-05-04 12:54 | -7.66039 | -40.08455 | 6578 ft | 191 kts | 276° |
| 2026-05-04 12:54 | -7.65832 | -40.09775 | 6584 ft | 190 kts | 276° |
| 2026-05-04 12:54 | -7.65633 | -40.11093 | 6584 ft | 191 kts | 275° |
| 2026-05-04 12:54 | -7.65425 | -40.12406 | 6582 ft | 190 kts | 276° |
| 2026-05-04 12:55 | -7.65218 | -40.13725 | 6580 ft | 191 kts | 276° |
| 2026-05-04 12:55 | -7.65011 | -40.15044 | 6580 ft | 191 kts | 276° |
| 2026-05-04 12:55 | -7.64795 | -40.16369 | 6533 ft | 194 kts | 276° |
| 2026-05-04 12:55 | -7.64568 | -40.17727 | 6378 ft | 199 kts | 277° |
| 2026-05-04 12:56 | -7.64334 | -40.19110 | 6217 ft | 201 kts | 276° |
| 2026-05-04 12:56 | -7.64102 | -40.20501 | 6074 ft | 201 kts | 277° |
| 2026-05-04 12:56 | -7.63871 | -40.21886 | 5924 ft | 200 kts | 276° |
| 2026-05-04 12:56 | -7.63644 | -40.23261 | 5781 ft | 199 kts | 276° |
| 2026-05-04 12:57 | -7.63422 | -40.24641 | 5633 ft | 200 kts | 277° |
| 2026-05-04 12:57 | -7.63193 | -40.26023 | 5488 ft | 200 kts | 277° |
| 2026-05-04 12:57 | -7.62966 | -40.27408 | 5346 ft | 201 kts | 277° |
| 2026-05-04 12:57 | -7.62731 | -40.28804 | 5203 ft | 202 kts | 277° |
| 2026-05-04 12:58 | -7.62496 | -40.30189 | 5051 ft | 199 kts | 277° |
| 2026-05-04 12:58 | -7.62280 | -40.31560 | 4906 ft | 197 kts | 276° |
| 2026-05-04 12:58 | -7.62059 | -40.32926 | 4768 ft | 198 kts | 277° |
| 2026-05-04 12:58 | -7.61827 | -40.34298 | 4627 ft | 199 kts | 277° |
| 2026-05-04 12:59 | -7.61600 | -40.35651 | 4466 ft | 197 kts | 276° |
| 2026-05-04 12:59 | -7.61384 | -40.37016 | 4316 ft | 198 kts | 275° |
| 2026-05-04 12:59 | -7.61157 | -40.38385 | 4170 ft | 198 kts | 276° |
| 2026-05-04 12:59 | -7.60925 | -40.39756 | 4032 ft | 199 kts | 277° |
| 2026-05-04 13:00 | -7.60692 | -40.41135 | 3880 ft | 199 kts | 276° |
| 2026-05-04 13:00 | -7.60465 | -40.42512 | 3736 ft | 199 kts | 276° |
| 2026-05-04 13:00 | -7.60241 | -40.43881 | 3589 ft | 197 kts | 277° |
| 2026-05-04 13:00 | -7.60020 | -40.45228 | 3448 ft | 193 kts | 276° |
| 2026-05-04 13:01 | -7.59806 | -40.46550 | 3328 ft | 188 kts | 277° |
| 2026-05-04 13:01 | -7.59583 | -40.47819 | 3190 ft | 181 kts | 279° |
| 2026-05-04 13:01 | -7.59346 | -40.49041 | 3046 ft | 169 kts | 278° |
| 2026-05-04 13:01 | -7.59249 | -40.50115 | 2876 ft | 139 kts | 268° |
| 2026-05-04 13:02 | -7.59218 | -40.51056 | 2713 ft | 126 kts | 266° |
| 2026-05-04 13:02 | -7.59164 | -40.51788 | 2521 ft | 95 kts | 276° |
| 2026-05-04 13:02 | -7.58993 | -40.52447 | 2376 ft | 98 kts | 282° |
| 2026-05-04 13:02 | -7.58787 | -40.53089 | 2207 ft | 90 kts | 286° |
| 2026-05-04 13:03 | -7.58637 | -40.53537 | 2202 ft | 34 kts | 293° |
| 2026-05-04 13:03 | -7.58603 | -40.53615 | 2202 ft | 8 kts | 118° |
| 2026-05-04 13:03 | -7.58600 | -40.53539 | 2202 ft | 18 kts | 20° |
| 2026-05-04 13:03 | -7.58556 | -40.53532 | 2203 ft | 0 kts | 289° |